Terminal Aerodrome Forecast
Issued by NWS

Home | Current Version | Previous Version | Text Only | Print | Product List | Glossary On
Versions: 1 2 3 4 5 6 7 8 9 10 11 12 13 14 15
000
FTUS43 KICT 020900 AAA
TAFRSL
TAF AMD
KRSL 020900Z 0209/0306 06006KT P6SM FEW009 SCT015
      TEMPO 0210/0213 SCT009 BKN015
     FM021300 06008KT P6SM VCTS SCT015 BKN060CB
     FM030100 VRB04KT P6SM BKN120=

USA.gov is the U.S. government's official web portal to all federal, state and local government web resources and services.